sensor_id;sensor_type;location;lat;lon;timestamp;temperature;humidity
21439;DHT22;10880;50.302;18.736;2023-04-25T17:40:25;18.30;38.30
21439;DHT22;10880;50.302;18.736;2023-04-25T17:43:19;18.30;38.70
21439;DHT22;10880;50.302;18.736;2023-04-25T17:45:53;18.20;38.10
21439;DHT22;10880;50.302;18.736;2023-04-25T17:51:20;18.10;37.80
21439;DHT22;10880;50.302;18.736;2023-04-25T17:54:15;18.00;38.30
21439;DHT22;10880;50.302;18.736;2023-04-25T17:59:48;17.70;38.20
21439;DHT22;10880;50.302;18.736;2023-04-25T18:02:21;16.20;37.50
21439;DHT22;10880;50.302;18.736;2023-04-25T18:05:14;17.60;38.50
21439;DHT22;10880;50.302;18.736;2023-04-25T18:07:50;17.50;38.60
21439;DHT22;10880;50.302;18.736;2023-04-25T18:10:44;17.40;38.60
21439;DHT22;10880;50.302;18.736;2023-04-25T18:13:17;17.30;38.60
21439;DHT22;10880;50.302;18.736;2023-04-25T18:16:13;17.20;38.80
21439;DHT22;10880;50.302;18.736;2023-04-25T18:18:47;17.10;38.60
21439;DHT22;10880;50.302;18.736;2023-04-25T18:21:53;17.10;38.80
21439;DHT22;10880;50.302;18.736;2023-04-25T18:24:29;17.00;39.10
21439;DHT22;10880;50.302;18.736;2023-04-25T18:27:22;16.90;39.10
21439;DHT22;10880;50.302;18.736;2023-04-25T18:29:57;16.90;39.00
21439;DHT22;10880;50.302;18.736;2023-04-25T18:32:51;16.80;39.30
21439;DHT22;10880;50.302;18.736;2023-04-25T18:35:23;16.70;39.10
21439;DHT22;10880;50.302;18.736;2023-04-25T18:38:16;16.70;39.60
21439;DHT22;10880;50.302;18.736;2023-04-25T18:41:13;16.60;39.30
21439;DHT22;10880;50.302;18.736;2023-04-25T18:43:48;16.60;39.50
21439;DHT22;10880;50.302;18.736;2023-04-25T18:46:48;16.60;39.60
21439;DHT22;10880;50.302;18.736;2023-04-25T18:49:56;16.60;39.80
21439;DHT22;10880;50.302;18.736;2023-04-25T18:52:51;16.50;40.00
21439;DHT22;10880;50.302;18.736;2023-04-25T18:55:25;16.40;39.90
21439;DHT22;10880;50.302;18.736;2023-04-25T18:58:21;16.40;40.40
21439;DHT22;10880;50.302;18.736;2023-04-25T19:00:54;16.30;40.10
21439;DHT22;10880;50.302;18.736;2023-04-25T19:03:49;16.20;40.50
21439;DHT22;10880;50.302;18.736;2023-04-25T19:06:27;16.20;40.20
21439;DHT22;10880;50.302;18.736;2023-04-25T19:09:21;16.20;40.70
21439;DHT22;10880;50.302;18.736;2023-04-25T19:11:54;16.10;40.30
21439;DHT22;10880;50.302;18.736;2023-04-25T19:14:49;16.10;40.90
21439;DHT22;10880;50.302;18.736;2023-04-25T19:20:15;16.10;40.50
21439;DHT22;10880;50.302;18.736;2023-04-25T19:22:52;16.10;41.00
21439;DHT22;10880;50.302;18.736;2023-04-25T19:25:45;16.10;41.00
21439;DHT22;10880;50.302;18.736;2023-04-25T19:31:12;16.00;40.80
21439;DHT22;10880;50.302;18.736;2023-04-25T19:36:40;16.00;41.00
21439;DHT22;10880;50.302;18.736;2023-04-25T19:39:15;16.00;41.00
21439;DHT22;10880;50.302;18.736;2023-04-25T19:42:11;15.90;41.10
21439;DHT22;10880;50.302;18.736;2023-04-25T19:44:44;15.90;41.50
21439;DHT22;10880;50.302;18.736;2023-04-25T19:47:39;15.90;41.30
21439;DHT22;10880;50.302;18.736;2023-04-25T19:50:16;15.90;41.70
21439;DHT22;10880;50.302;18.736;2023-04-25T19:53:13;15.90;41.70
21439;DHT22;10880;50.302;18.736;2023-04-25T19:55:46;15.80;41.60
21439;DHT22;10880;50.302;18.736;2023-04-25T19:58:46;15.80;41.70
21439;DHT22;10880;50.302;18.736;2023-04-25T20:01:19;15.80;41.90
21439;DHT22;10880;50.302;18.736;2023-04-25T20:04:12;15.80;41.80
21439;DHT22;10880;50.302;18.736;2023-04-25T20:06:45;15.70;41.50
21439;DHT22;10880;50.302;18.736;2023-04-25T20:09:39;15.70;41.90
21439;DHT22;10880;50.302;18.736;2023-04-25T20:12:14;15.70;41.90
21439;DHT22;10880;50.302;18.736;2023-04-25T20:15:08;15.60;41.70
21439;DHT22;10880;50.302;18.736;2023-04-25T20:20:35;15.50;41.60
21439;DHT22;10880;50.302;18.736;2023-04-25T20:23:08;15.50;42.20
21439;DHT22;10880;50.302;18.736;2023-04-25T20:26:01;15.50;42.30
21439;DHT22;10880;50.302;18.736;2023-04-25T20:28:34;15.40;42.10
21439;DHT22;10880;50.302;18.736;2023-04-25T20:31:29;15.40;42.50
21439;DHT22;10880;50.302;18.736;2023-04-25T20:34:02;15.40;42.20
21439;DHT22;10880;50.302;18.736;2023-04-25T20:36:55;15.30;42.50
21439;DHT22;10880;50.302;18.736;2023-04-25T20:39:29;15.30;42.50
21439;DHT22;10880;50.302;18.736;2023-04-25T20:42:22;15.30;42.60
21439;DHT22;10880;50.302;18.736;2023-04-25T20:45:17;15.20;42.60
21439;DHT22;10880;50.302;18.736;2023-04-25T20:48:10;15.20;42.70
21439;DHT22;10880;50.302;18.736;2023-04-25T20:50:43;15.20;43.10
21439;DHT22;10880;50.302;18.736;2023-04-25T20:53:36;15.10;42.80
21439;DHT22;10880;50.302;18.736;2023-04-25T20:59:05;15.00;42.80
21439;DHT22;10880;50.302;18.736;2023-04-25T21:01:39;14.90;42.80
21439;DHT22;10880;50.302;18.736;2023-04-25T21:04:31;14.90;43.30
21439;DHT22;10880;50.302;18.736;2023-04-25T21:07:04;14.90;43.00
21439;DHT22;10880;50.302;18.736;2023-04-25T21:10:01;14.80;43.00
21439;DHT22;10880;50.302;18.736;2023-04-25T21:12:33;14.80;43.20
21439;DHT22;10880;50.302;18.736;2023-04-25T21:15:28;14.80;43.20
21439;DHT22;10880;50.302;18.736;2023-04-25T21:18:02;14.80;43.30
21439;DHT22;10880;50.302;18.736;2023-04-25T21:20:55;14.80;43.70
21439;DHT22;10880;50.302;18.736;2023-04-25T21:23:28;14.70;43.80
21439;DHT22;10880;50.302;18.736;2023-04-25T21:26:21;14.70;43.80
21439;DHT22;10880;50.302;18.736;2023-04-25T21:28:54;14.70;43.90
21439;DHT22;10880;50.302;18.736;2023-04-25T21:31:47;14.70;43.90
21439;DHT22;10880;50.302;18.736;2023-04-25T21:34:20;14.60;44.20
21439;DHT22;10880;50.302;18.736;2023-04-25T21:37:13;14.60;44.30
21439;DHT22;10880;50.302;18.736;2023-04-25T21:39:46;14.50;43.90
21439;DHT22;10880;50.302;18.736;2023-04-25T21:42:40;14.50;44.30
21439;DHT22;10880;50.302;18.736;2023-04-25T21:48:09;14.40;44.20
21439;DHT22;10880;50.302;18.736;2023-04-25T21:50:42;14.40;44.60
21439;DHT22;10880;50.302;18.736;2023-04-25T21:53:35;14.30;44.90
21439;DHT22;10880;50.302;18.736;2023-04-25T21:56:11;14.30;45.10
21439;DHT22;10880;50.302;18.736;2023-04-25T21:59:04;14.30;45.20
21439;DHT22;10880;50.302;18.736;2023-04-25T22:04:30;14.30;44.90
21439;DHT22;10880;50.302;18.736;2023-04-25T22:07:03;14.30;45.40
21439;DHT22;10880;50.302;18.736;2023-04-25T22:09:56;14.30;45.20
21439;DHT22;10880;50.302;18.736;2023-04-25T22:12:29;14.20;45.10
21439;DHT22;10880;50.302;18.736;2023-04-25T22:15:23;14.30;45.60
21439;DHT22;10880;50.302;18.736;2023-04-25T22:17:55;14.20;45.30
21439;DHT22;10880;50.302;18.736;2023-04-25T22:20:48;14.20;45.70
21439;DHT22;10880;50.302;18.736;2023-04-25T22:23:21;14.20;45.80
21439;DHT22;10880;50.302;18.736;2023-04-25T22:26:14;14.20;45.60
21439;DHT22;10880;50.302;18.736;2023-04-25T22:28:47;14.20;45.90
21439;DHT22;10880;50.302;18.736;2023-04-25T22:31:40;14.20;46.00
21439;DHT22;10880;50.302;18.736;2023-04-25T22:34:13;14.20;46.00
21439;DHT22;10880;50.302;18.736;2023-04-25T22:37:06;14.20;46.00
21439;DHT22;10880;50.302;18.736;2023-04-25T22:39:39;14.20;45.90
21439;DHT22;10880;50.302;18.736;2023-04-25T22:42:39;14.10;46.10
21439;DHT22;10880;50.302;18.736;2023-04-25T22:48:10;14.10;45.70
21439;DHT22;10880;50.302;18.736;2023-04-25T22:50:45;14.10;46.20
21439;DHT22;10880;50.302;18.736;2023-04-25T22:53:38;14.10;46.30
21439;DHT22;10880;50.302;18.736;2023-04-25T22:56:11;14.10;46.20
21439;DHT22;10880;50.302;18.736;2023-04-25T22:59:07;14.10;45.90
21439;DHT22;10880;50.302;18.736;2023-04-25T23:01:42;14.00;46.30
21439;DHT22;10880;50.302;18.736;2023-04-25T23:04:35;14.00;45.80
21439;DHT22;10880;50.302;18.736;2023-04-25T23:07:09;14.00;46.30
21439;DHT22;10880;50.302;18.736;2023-04-25T23:12:37;14.00;45.90
21439;DHT22;10880;50.302;18.736;2023-04-25T23:15:31;14.00;47.00
21439;DHT22;10880;50.302;18.736;2023-04-25T23:18:03;14.00;46.40
21439;DHT22;10880;50.302;18.736;2023-04-25T23:21:01;14.00;46.40
21439;DHT22;10880;50.302;18.736;2023-04-25T23:23:35;14.00;46.00
21439;DHT22;10880;50.302;18.736;2023-04-25T23:26:27;14.00;46.40
21439;DHT22;10880;50.302;18.736;2023-04-25T23:29:01;14.00;46.40
21439;DHT22;10880;50.302;18.736;2023-04-25T23:31:54;14.00;46.50
21439;DHT22;10880;50.302;18.736;2023-04-25T23:34:31;14.00;46.50
21439;DHT22;10880;50.302;18.736;2023-04-25T23:37:27;14.00;46.50
21439;DHT22;10880;50.302;18.736;2023-04-25T23:40:02;14.00;46.50
21439;DHT22;10880;50.302;18.736;2023-04-25T23:43:00;14.00;46.10
21439;DHT22;10880;50.302;18.736;2023-04-25T23:45:34;14.00;46.50
21439;DHT22;10880;50.302;18.736;2023-04-25T23:51:05;14.00;46.10
21439;DHT22;10880;50.302;18.736;2023-04-25T23:53:58;14.00;46.50
21439;DHT22;10880;50.302;18.736;2023-04-25T23:56:31;14.00;46.50
21439;DHT22;10880;50.302;18.736;2023-04-25T23:59:24;13.90;46.40
